createdAt,value
2023-03-23T00:01:17.354Z,23.27
2023-03-23T00:05:17.470Z,23.27
2023-03-23T00:09:17.554Z,23.26
2023-03-23T00:13:17.620Z,23.26
2023-03-23T00:17:17.709Z,23.26
2023-03-23T00:21:17.776Z,23.25
2023-03-23T00:25:17.965Z,23.25
2023-03-23T00:29:18.047Z,23.24
2023-03-23T00:33:18.164Z,23.23
2023-03-23T00:37:18.196Z,23.24
2023-03-23T00:41:18.283Z,23.23
2023-03-23T00:45:18.426Z,23.23
2023-03-23T00:49:18.482Z,23.22
2023-03-23T00:53:18.674Z,23.22
2023-03-23T00:57:18.814Z,23.22
2023-03-23T01:01:18.929Z,23.21
2023-03-23T01:05:19.028Z,23.20
2023-03-23T01:09:19.196Z,23.20
2023-03-23T01:13:19.329Z,23.20
2023-03-23T01:17:19.404Z,23.19
2023-03-23T01:21:19.494Z,23.19
2023-03-23T01:25:19.538Z,23.18
2023-03-23T01:29:19.540Z,23.18
2023-03-23T01:33:19.456Z,23.17
2023-03-23T01:37:19.424Z,23.17
2023-03-23T01:41:19.422Z,23.17
2023-03-23T01:45:19.590Z,23.17
2023-03-23T01:49:19.388Z,23.16
2023-03-23T01:53:19.301Z,23.16
2023-03-23T01:57:19.258Z,23.16
2023-03-23T02:01:20.278Z,23.15
2023-03-23T02:05:19.174Z,23.15
2023-03-23T02:09:19.209Z,23.14
2023-03-23T02:13:20.149Z,23.13
2023-03-23T02:17:19.086Z,23.13
2023-03-23T02:21:19.080Z,23.13
2023-03-23T02:25:18.996Z,23.13
2023-03-23T02:29:19.126Z,23.12
2023-03-23T02:33:19.191Z,23.12
2023-03-23T02:37:19.340Z,23.11
2023-03-23T02:45:19.683Z,23.10
2023-03-23T02:49:19.888Z,23.10
2023-03-23T02:53:20.039Z,23.10
2023-03-23T02:57:20.180Z,23.09
2023-03-23T03:01:21.176Z,23.08
2023-03-23T03:05:20.089Z,23.09
2023-03-23T03:09:20.069Z,23.08
2023-03-23T03:13:20.138Z,23.07
2023-03-23T03:17:20.301Z,23.08
2023-03-23T03:21:20.501Z,23.07
2023-03-23T03:25:20.620Z,23.07
2023-03-23T03:29:20.800Z,23.07
2023-03-23T03:33:20.744Z,23.07
2023-03-23T03:37:20.725Z,23.06
2023-03-23T03:41:20.657Z,23.06
2023-03-23T03:45:20.673Z,23.05
2023-03-23T03:49:20.605Z,23.05
2023-03-23T03:53:20.561Z,23.04
2023-03-23T03:57:21.554Z,23.04
2023-03-23T04:01:20.488Z,23.03
2023-03-23T04:05:20.617Z,23.04
2023-03-23T04:09:20.717Z,23.03
2023-03-23T04:13:20.876Z,23.02
2023-03-23T04:17:21.022Z,23.02
2023-03-23T04:21:21.174Z,23.03
2023-03-23T04:25:21.384Z,23.02
2023-03-23T04:29:21.617Z,23.01
2023-03-23T04:33:22.418Z,23.01
2023-03-23T04:37:21.937Z,23.01
2023-03-23T04:41:22.174Z,23.01
2023-03-23T04:45:22.345Z,23.00
2023-03-23T04:49:22.547Z,22.99
2023-03-23T04:53:22.570Z,22.99
2023-03-23T04:57:22.478Z,22.98
2023-03-23T05:01:22.455Z,22.99
2023-03-23T05:05:22.427Z,22.98
2023-03-23T05:09:22.360Z,22.98
2023-03-23T05:13:22.314Z,22.98
2023-03-23T05:17:22.261Z,22.98
2023-03-23T05:21:22.240Z,22.97
2023-03-23T05:25:22.185Z,22.97
2023-03-23T05:29:22.186Z,22.97
2023-03-23T05:33:22.171Z,22.97
2023-03-23T05:37:22.348Z,22.96
2023-03-23T05:41:22.471Z,22.97
2023-03-23T05:45:22.654Z,22.96
2023-03-23T05:49:22.836Z,22.98
2023-03-23T05:53:23.024Z,23.00
2023-03-23T05:57:23.013Z,23.02
2023-03-23T06:01:22.948Z,23.06
2023-03-23T06:05:22.891Z,23.16
2023-03-23T06:09:22.892Z,23.23
2023-03-23T06:13:22.812Z,23.31
2023-03-23T06:17:22.814Z,23.40
2023-03-23T06:21:22.742Z,23.45
2023-03-23T06:25:22.698Z,23.47
2023-03-23T06:29:22.692Z,23.47
2023-03-23T06:33:22.686Z,23.41
2023-03-23T06:37:22.630Z,23.39
2023-03-23T06:41:22.601Z,23.24
2023-03-23T06:45:22.587Z,23.04
2023-03-23T06:49:22.606Z,23.04
2023-03-23T06:53:22.789Z,23.11
2023-03-23T06:57:22.969Z,23.21
2023-03-23T07:01:22.941Z,23.29
2023-03-23T07:05:23.076Z,23.36
2023-03-23T07:09:27.607Z,23.42
2023-03-23T07:13:24.064Z,23.48
2023-03-23T07:17:22.785Z,23.53
2023-03-23T07:21:22.798Z,23.58
2023-03-23T07:25:22.767Z,23.64
2023-03-23T07:29:22.847Z,23.69
2023-03-23T07:33:22.907Z,23.73
2023-03-23T07:37:23.144Z,23.81
2023-03-23T07:41:22.906Z,23.87
2023-03-23T07:45:23.043Z,23.91
2023-03-23T07:49:23.161Z,24.00
2023-03-23T07:53:23.079Z,24.06
2023-03-23T07:57:23.071Z,24.12
2023-03-23T08:01:23.004Z,24.16
2023-03-23T08:05:22.996Z,24.24
2023-03-23T08:09:23.109Z,24.28
2023-03-23T08:13:23.176Z,24.38
2023-03-23T08:17:22.861Z,24.59
2023-03-23T08:21:22.870Z,24.71
2023-03-23T08:25:22.792Z,24.77
2023-03-23T08:29:22.754Z,24.70
2023-03-23T08:33:23.083Z,24.47
2023-03-23T08:37:23.119Z,24.05
2023-03-23T08:41:23.610Z,23.98
2023-03-23T08:45:22.646Z,24.10
2023-03-23T08:49:22.571Z,24.27
2023-03-23T08:53:23.190Z,24.42
2023-03-23T08:57:22.961Z,24.52
2023-03-23T09:01:23.032Z,24.60
2023-03-23T09:05:23.146Z,24.68
2023-03-23T09:09:23.199Z,24.71
2023-03-23T09:13:23.298Z,24.73
2023-03-23T09:17:23.295Z,24.80
2023-03-23T09:21:23.415Z,24.89
2023-03-23T09:25:23.471Z,24.95
2023-03-23T09:29:23.558Z,24.94
2023-03-23T09:33:23.629Z,24.89
2023-03-23T09:37:23.587Z,24.84
2023-03-23T09:41:23.615Z,24.83
2023-03-23T09:45:23.720Z,24.76
2023-03-23T09:49:23.730Z,24.87
2023-03-23T09:53:24.122Z,24.92
2023-03-23T09:57:23.829Z,25.02
2023-03-23T10:01:23.871Z,25.09
2023-03-23T10:05:23.880Z,25.11
2023-03-23T10:09:23.917Z,25.11
2023-03-23T10:13:23.909Z,25.14
2023-03-23T10:17:23.923Z,25.24
2023-03-23T10:21:23.950Z,25.32
2023-03-23T10:25:24.088Z,25.36
2023-03-23T10:29:24.295Z,25.46
2023-03-23T10:33:24.274Z,25.55
2023-03-23T10:37:24.647Z,25.50
2023-03-23T10:41:26.118Z,25.13
2023-03-23T10:45:24.152Z,24.94
2023-03-23T10:49:24.110Z,25.06
2023-03-23T10:53:24.182Z,25.20
2023-03-23T10:57:24.201Z,25.31
2023-03-23T11:01:24.262Z,25.34
2023-03-23T11:05:24.960Z,25.43
2023-03-23T11:09:24.382Z,25.48
2023-03-23T11:13:24.349Z,25.47
2023-03-23T11:17:24.321Z,25.50
2023-03-23T11:21:24.308Z,25.49
2023-03-23T11:25:24.256Z,25.48
2023-03-23T11:29:24.626Z,25.29
2023-03-23T11:33:25.706Z,25.11
2023-03-23T11:37:24.168Z,24.85
2023-03-23T11:41:24.091Z,24.65
2023-03-23T11:45:24.062Z,24.55
2023-03-23T11:53:24.020Z,24.41
2023-03-23T11:57:24.044Z,24.38
2023-03-23T12:01:24.279Z,24.37
2023-03-23T12:05:24.428Z,24.40
2023-03-23T12:09:24.545Z,24.47
2023-03-23T12:13:24.691Z,24.52
2023-03-23T12:17:24.850Z,24.52
2023-03-23T12:21:25.198Z,24.69
2023-03-23T12:25:25.053Z,24.83
2023-03-23T12:29:25.099Z,24.89
2023-03-23T12:33:25.135Z,24.93
2023-03-23T12:37:25.249Z,24.96
2023-03-23T12:41:25.324Z,24.96
2023-03-23T12:45:25.393Z,24.94
2023-03-23T12:49:25.427Z,24.98
2023-03-23T12:53:25.470Z,24.96
2023-03-23T12:57:25.589Z,24.95
2023-03-23T13:01:25.642Z,24.94
2023-03-23T13:05:25.728Z,24.97
2023-03-23T13:09:25.826Z,25.03
2023-03-23T13:13:25.863Z,25.05
2023-03-23T13:17:25.874Z,25.05
2023-03-23T13:21:25.967Z,25.05
2023-03-23T13:25:25.991Z,25.05
2023-03-23T13:29:26.003Z,25.03
2023-03-23T13:33:26.049Z,24.94
2023-03-23T13:37:26.095Z,24.92
2023-03-23T13:41:26.145Z,24.88
2023-03-23T13:45:26.136Z,24.81
2023-03-23T13:49:26.161Z,24.74
2023-03-23T13:53:30.468Z,24.72
2023-03-23T13:57:26.187Z,24.70
2023-03-23T14:01:26.127Z,24.71
2023-03-23T14:05:26.109Z,24.68
2023-03-23T14:09:26.034Z,24.67
2023-03-23T14:13:26.065Z,24.63
2023-03-23T14:17:25.995Z,24.57
2023-03-23T14:21:25.932Z,24.54
2023-03-23T14:25:25.898Z,24.52
2023-03-23T14:29:26.105Z,24.49
2023-03-23T14:33:26.287Z,24.49
2023-03-23T14:37:26.436Z,24.48
2023-03-23T14:41:26.546Z,24.47
2023-03-23T14:45:26.648Z,24.46
2023-03-23T14:49:26.843Z,24.44
2023-03-23T14:53:26.992Z,24.44
2023-03-23T14:57:27.071Z,24.43
2023-03-23T15:01:27.201Z,24.43
2023-03-23T15:05:27.330Z,24.42
2023-03-23T15:09:27.496Z,24.42
2023-03-23T15:13:27.627Z,24.40
2023-03-23T15:17:27.761Z,24.35
2023-03-23T15:21:28.025Z,24.29
2023-03-23T15:25:28.147Z,24.25
2023-03-23T15:29:28.324Z,24.24
2023-03-23T15:33:28.878Z,24.24
2023-03-23T15:37:28.726Z,24.24
2023-03-23T15:41:28.871Z,24.25
2023-03-23T15:45:29.179Z,24.24
2023-03-23T15:49:29.317Z,24.22
2023-03-23T15:53:29.500Z,24.18
2023-03-23T15:57:29.677Z,24.15
2023-03-23T16:01:29.983Z,24.13
2023-03-23T16:05:30.143Z,24.09
2023-03-23T16:09:30.336Z,24.07
2023-03-23T16:13:30.295Z,24.04
2023-03-23T16:17:30.276Z,24.03
2023-03-23T16:21:30.257Z,24.01
2023-03-23T16:25:30.335Z,23.99
2023-03-23T16:33:30.210Z,23.96
